Time;durP1;ratioP1;P1;durP2;ratioP2;P2;SDS_P1;SDS_P2;PMS_P1;PMS_P2;Temp;Humidity;BMP_temperature;BMP_pressure;BME280_temperature;BME280_humidity;BME280_pressure;Samples;Min_cycle;Max_cycle;Signal;HPM_P1;HPM_P2
2023/05/16 04:01:02;;;;;;;0.50;0.50;;;11.30;99.90;;;;;;5670431;23;20263;-71
2023/05/16 04:03:29;;;;;;;0.40;0.40;;;11.30;99.90;;;;;;4986400;28;20580;-71
2023/05/16 04:05:56;;;;;;;3.60;0.40;;;11.30;99.90;;;;;;4984140;28;20407;-72
2023/05/16 04:08:23;;;;;;;0.40;0.40;;;11.30;99.90;;;;;;4978802;28;20209;-71
2023/05/16 04:10:49;;;;;;;1.58;0.80;;;11.30;99.90;;;;;;4987045;28;20224;-71
2023/05/16 04:13:16;;;;;;;0.40;0.40;;;11.30;99.90;;;;;;4986753;28;20236;-71
2023/05/16 04:15:43;;;;;;;1.38;0.68;;;11.30;99.90;;;;;;4984209;28;20212;-71
2023/05/16 04:18:11;;;;;;;3.42;1.25;;;11.30;99.90;;;;;;4992868;28;20220;-72
2023/05/16 04:20:38;;;;;;;8.02;2.25;;;11.40;99.90;;;;;;4988376;28;20236;-72
2023/05/16 04:23:04;;;;;;;0.60;0.50;;;11.40;99.90;;;;;;4987118;28;20208;-72
2023/05/16 04:25:31;;;;;;;0.95;0.95;;;11.40;99.90;;;;;;4989593;28;20215;-71
2023/05/16 04:27:58;;;;;;;1.33;0.85;;;11.40;99.90;;;;;;4981980;28;20603;-72
2023/05/16 04:30:25;;;;;;;2.58;0.70;;;11.40;99.90;;;;;;4989118;28;20204;-71
2023/05/16 04:32:52;;;;;;;3.65;0.73;;;11.40;99.90;;;;;;4985427;28;20211;-71
2023/05/16 04:35:20;;;;;;;12.90;1.70;;;11.40;99.90;;;;;;4986524;28;20208;-71
2023/05/16 04:37:47;;;;;;;0.47;0.47;;;11.40;99.90;;;;;;4989209;28;20299;-71
2023/05/16 04:40:14;;;;;;;0.88;0.88;;;11.30;99.90;;;;;;4986463;28;20695;-72
2023/05/16 04:42:41;;;;;;;1.85;1.23;;;11.30;99.90;;;;;;4992128;28;20200;-72
2023/05/16 04:45:10;;;;;;;0.80;0.80;;;11.30;99.90;;;;;;4986600;28;20213;-71
2023/05/16 04:47:37;;;;;;;1.27;0.75;;;11.30;99.90;;;;;;4984405;28;20594;-71
2023/05/16 04:50:05;;;;;;;2.78;1.10;;;11.30;99.90;;;;;;4985985;28;20693;-71
2023/05/16 04:52:33;;;;;;;1.05;0.50;;;11.30;99.90;;;;;;4989320;28;20227;-71
2023/05/16 04:54:59;;;;;;;1.45;1.45;;;11.30;99.90;;;;;;4989047;28;20234;-71
2023/05/16 04:57:27;;;;;;;2.50;0.40;;;11.30;99.90;;;;;;4992207;28;20211;-71
2023/05/16 04:59:54;;;;;;;10.15;1.85;;;11.30;99.90;;;;;;4987766;28;20200;-71
2023/05/16 05:02:21;;;;;;;3.83;2.00;;;11.20;99.90;;;;;;4985865;28;20232;-72
2023/05/16 05:04:47;;;;;;;0.63;0.63;;;11.20;99.90;;;;;;4989056;28;20207;-72
2023/05/16 05:07:14;;;;;;;0.75;0.75;;;11.20;99.90;;;;;;4988055;28;20208;-70
2023/05/16 05:09:42;;;;;;;0.40;0.40;;;11.20;99.90;;;;;;4988219;28;20212;-71
2023/05/16 05:12:10;;;;;;;0.40;0.40;;;11.20;99.90;;;;;;4994862;28;20231;-72
2023/05/16 05:14:36;;;;;;;5.97;0.88;;;11.20;99.90;;;;;;4990778;28;20227;-71
2023/05/16 05:17:03;;;;;;;2.13;0.95;;;11.20;99.90;;;;;;4985824;28;20322;-71
2023/05/16 05:19:30;;;;;;;2.40;0.73;;;11.20;99.90;;;;;;4980593;28;20205;-71
2023/05/16 05:21:57;;;;;;;4.45;0.43;;;11.20;99.90;;;;;;4990442;28;20235;-71
2023/05/16 05:24:23;;;;;;;1.40;0.60;;;11.10;99.90;;;;;;4983448;28;20240;-70
2023/05/16 05:26:52;;;;;;;0.85;0.85;;;11.10;99.90;;;;;;4993365;28;20226;-71
2023/05/16 05:29:19;;;;;;;0.93;0.93;;;11.10;99.90;;;;;;4983453;28;20220;-71
2023/05/16 05:31:46;;;;;;;2.20;0.95;;;11.10;99.90;;;;;;4992894;28;20228;-72
2023/05/16 05:34:12;;;;;;;0.40;0.40;;;11.20;99.90;;;;;;4999234;28;20255;-71
2023/05/16 05:36:39;;;;;;;4.30;0.98;;;11.10;99.90;;;;;;5009344;28;20211;-70
2023/05/16 05:39:06;;;;;;;1.05;0.47;;;11.20;99.90;;;;;;5004655;28;20212;-72
2023/05/16 05:41:33;;;;;;;4.32;0.73;;;11.20;99.90;;;;;;5004279;28;20259;-71
2023/05/16 05:44:01;;;;;;;3.25;0.73;;;11.20;99.90;;;;;;4992430;28;20211;-71
2023/05/16 05:46:27;;;;;;;2.28;0.50;;;11.30;99.90;;;;;;5000526;28;20266;-72
2023/05/16 05:48:54;;;;;;;7.50;0.68;;;11.20;99.90;;;;;;4990280;28;20477;-71
2023/05/16 05:51:21;;;;;;;0.90;0.90;;;11.30;99.90;;;;;;4982526;28;20235;-72
2023/05/16 05:53:48;;;;;;;1.20;1.15;;;11.40;99.90;;;;;;4991286;28;20272;-71
2023/05/16 05:56:15;;;;;;;0.50;0.30;;;11.50;99.90;;;;;;4991585;28;20557;-72
2023/05/16 05:58:42;;;;;;;0.30;0.30;;;11.80;99.90;;;;;;4983085;28;20303;-72
2023/05/16 06:01:10;;;;;;;4.57;1.90;;;12.10;99.90;;;;;;4989148;28;20331;-72
2023/05/16 06:03:37;;;;;;;7.20;1.20;;;12.60;99.90;;;;;;4989892;28;20482;-72
2023/05/16 06:06:04;;;;;;;0.30;0.30;;;13.40;99.90;;;;;;4986719;28;20954;-71
2023/05/16 06:08:31;;;;;;;0.30;0.30;;;13.70;99.90;;;;;;4987224;28;20565;-71
2023/05/16 06:10:58;;;;;;;2.93;0.73;;;13.50;99.90;;;;;;4990752;28;20486;-71
2023/05/16 06:13:25;;;;;;;2.33;0.40;;;13.10;99.90;;;;;;4991037;28;20494;-71
2023/05/16 06:15:51;;;;;;;0.27;0.27;;;12.80;99.90;;;;;;4984862;28;20614;-72
2023/05/16 06:18:19;;;;;;;0.93;0.90;;;12.60;99.90;;;;;;4985389;28;20847;-72
2023/05/16 06:20:46;;;;;;;1.60;0.63;;;12.50;99.90;;;;;;4987700;28;21003;-72
2023/05/16 06:23:13;;;;;;;0.30;0.30;;;12.60;99.90;;;;;;4989417;28;20478;-71
2023/05/16 06:25:40;;;;;;;0.40;0.40;;;12.60;99.90;;;;;;4998769;28;20523;-72
2023/05/16 06:28:06;;;;;;;6.33;0.80;;;12.50;99.90;;;;;;4991411;28;20475;-72
2023/05/16 06:30:33;;;;;;;7.40;0.60;;;12.50;99.90;;;;;;4986229;28;20490;-72
2023/05/16 06:33:00;;;;;;;4.90;1.17;;;12.50;99.90;;;;;;4989157;28;20475;-72
2023/05/16 06:35:28;;;;;;;1.17;0.93;;;12.50;99.90;;;;;;4990465;28;20483;-72
2023/05/16 06:37:55;;;;;;;2.30;2.27;;;12.40;99.90;;;;;;4985077;28;20790;-72
2023/05/16 06:40:21;;;;;;;0.23;0.23;;;12.40;99.90;;;;;;4984558;28;20522;-72
2023/05/16 06:42:48;;;;;;;0.33;0.33;;;12.30;99.90;;;;;;4994438;28;20508;-71
2023/05/16 06:45:15;;;;;;;1.30;0.30;;;12.30;99.90;;;;;;4988315;28;20463;-71
2023/05/16 06:47:42;;;;;;;2.00;0.37;;;13.10;99.90;;;;;;4990831;28;20478;-72
2023/05/16 06:50:10;;;;;;;0.30;0.30;;;14.20;99.90;;;;;;4990718;28;20463;-72
2023/05/16 06:52:38;;;;;;;5.70;0.47;;;15.10;99.90;;;;;;4988603;28;20491;-72
2023/05/16 06:55:05;;;;;;;0.53;0.53;;;15.40;99.90;;;;;;4983349;28;20493;-72
2023/05/16 06:57:32;;;;;;;0.87;0.70;;;15.10;99.90;;;;;;4989839;28;20463;-71
2023/05/16 06:59:58;;;;;;;2.97;0.50;;;14.40;99.90;;;;;;4984939;28;20460;-73
2023/05/16 07:02:25;;;;;;;1.40;0.33;;;14.50;99.90;;;;;;4986898;28;20490;-72
2023/05/16 07:04:52;;;;;;;2.20;0.40;;;15.10;99.90;;;;;;4990034;28;20482;-69
2023/05/16 07:07:19;;;;;;;0.63;0.60;;;15.90;99.90;;;;;;4982838;28;20521;-72
2023/05/16 07:09:47;;;;;;;0.60;0.60;;;16.60;99.90;;;;;;4991196;28;20471;-70
2023/05/16 07:12:13;;;;;;;0.63;0.50;;;16.80;99.90;;;;;;4991522;28;20495;-70
2023/05/16 07:14:40;;;;;;;0.50;0.37;;;16.60;99.90;;;;;;4992669;28;20972;-71
2023/05/16 07:17:07;;;;;;;2.00;0.60;;;15.80;99.90;;;;;;4996291;28;20470;-71
2023/05/16 07:19:33;;;;;;;1.63;0.30;;;14.80;99.90;;;;;;4993876;28;21130;-71
2023/05/16 07:22:00;;;;;;;0.50;0.40;;;14.70;99.90;;;;;;4987911;28;20487;-71
2023/05/16 07:24:27;;;;;;;6.03;0.80;;;14.30;99.90;;;;;;4982616;28;20463;-72
2023/05/16 07:26:55;;;;;;;5.00;0.53;;;14.00;99.90;;;;;;4986130;28;20475;-72
2023/05/16 07:29:21;;;;;;;0.30;0.30;;;13.80;99.90;;;;;;4982155;28;20462;-72
2023/05/16 07:31:48;;;;;;;1.17;0.73;;;13.70;99.90;;;;;;4987054;28;20595;-72
2023/05/16 07:34:15;;;;;;;1.40;0.50;;;13.80;99.90;;;;;;4986120;28;20541;-71
2023/05/16 07:36:42;;;;;;;0.87;0.30;;;13.80;99.90;;;;;;4989260;28;20844;-71
2023/05/16 07:39:08;;;;;;;4.10;1.03;;;14.00;99.90;;;;;;4988897;28;20482;-71
2023/05/16 07:41:35;;;;;;;1.73;1.63;;;14.00;99.90;;;;;;4983019;28;20490;-72
2023/05/16 07:44:03;;;;;;;3.60;1.07;;;14.10;99.90;;;;;;4988940;28;20467;-71
2023/05/16 07:46:30;;;;;;;0.87;0.70;;;15.10;99.90;;;;;;4987658;28;20477;-71
2023/05/16 07:48:56;;;;;;;8.73;0.83;;;15.60;99.90;;;;;;4978718;28;20475;-71
2023/05/16 07:51:23;;;;;;;0.30;0.30;;;16.00;99.90;;;;;;4987357;28;20490;-71
2023/05/16 07:53:50;;;;;;;1.33;0.20;;;16.50;99.90;;;;;;4992302;28;20477;-71
2023/05/16 07:56:17;;;;;;;0.70;0.70;;;16.20;99.90;;;;;;4993289;28;20640;-71
2023/05/16 07:58:44;;;;;;;0.87;0.40;;;16.10;99.90;;;;;;4989641;28;20474;-71
2023/05/16 08:01:12;;;;;;;0.40;0.40;;;16.10;99.90;;;;;;4987510;28;20490;-71
2023/05/16 08:03:39;;;;;;;0.77;0.50;;;15.90;99.90;;;;;;4993069;28;20968;-70
2023/05/16 08:06:06;;;;;;;0.67;0.60;;;15.90;99.90;;;;;;4994024;28;20944;-70
2023/05/16 08:08:33;;;;;;;2.57;0.73;;;16.10;99.90;;;;;;4994754;28;20465;-70
2023/05/16 08:10:59;;;;;;;0.67;0.20;;;15.90;99.90;;;;;;4994084;28;20983;-70
2023/05/16 08:13:26;;;;;;;0.97;0.30;;;15.50;99.90;;;;;;4985529;28;20475;-70
2023/05/16 08:15:53;;;;;;;2.00;0.57;;;15.20;98.80;;;;;;4994760;28;20482;-70
2023/05/16 08:18:21;;;;;;;0.20;0.20;;;15.00;99.00;;;;;;4995171;28;20459;-70
2023/05/16 08:20:48;;;;;;;0.57;0.40;;;14.90;99.90;;;;;;4992394;28;21021;-70
2023/05/16 08:23:15;;;;;;;0.50;0.50;;;15.00;99.90;;;;;;4994407;28;20566;-71
2023/05/16 08:25:41;;;;;;;1.60;0.60;;;15.10;99.90;;;;;;4993955;28;20905;-70
2023/05/16 08:28:08;;;;;;;5.93;0.40;;;15.10;99.90;;;;;;4989910;28;20471;-70
2023/05/16 08:30:35;;;;;;;0.40;0.40;;;15.10;99.70;;;;;;4994157;28;20491;-71
2023/05/16 08:33:03;;;;;;;1.33;0.97;;;15.00;99.90;;;;;;4994149;28;20473;-71
2023/05/16 08:35:31;;;;;;;0.93;0.90;;;14.90;99.90;;;;;;4984015;28;20553;-70
2023/05/16 08:37:58;;;;;;;1.23;0.50;;;15.00;99.90;;;;;;4994251;28;20467;-69
2023/05/16 08:40:26;;;;;;;0.50;0.30;;;15.00;99.90;;;;;;4991253;28;20833;-70
2023/05/16 08:42:53;;;;;;;0.30;0.30;;;15.00;99.90;;;;;;4985799;28;20521;-70
2023/05/16 08:45:20;;;;;;;0.37;0.37;;;15.10;99.80;;;;;;4992488;28;20462;-70
2023/05/16 08:47:50;;;;;;;0.20;0.20;;;15.10;99.90;;;;;;4983040;28;20463;-71
2023/05/16 08:50:17;;;;;;;0.40;0.40;;;15.00;99.90;;;;;;4980033;28;20473;-70
2023/05/16 08:52:47;;;;;;;1.03;1.03;;;14.80;99.90;;;;;;4994036;28;20651;-72
2023/05/16 08:55:15;;;;;;;1.03;0.30;;;14.70;99.90;;;;;;4992808;28;20494;-71
2023/05/16 08:57:43;;;;;;;0.30;0.30;;;14.70;99.90;;;;;;4982710;28;20460;-71
2023/05/16 09:00:11;;;;;;;0.30;0.30;;;14.80;99.90;;;;;;4980955;28;20561;-71
2023/05/16 09:02:39;;;;;;;0.20;0.20;;;14.80;99.90;;;;;;4994355;28;20546;-72
2023/05/16 09:05:10;;;;;;;1.47;0.37;;;14.90;98.10;;;;;;4988580;28;20470;-72
2023/05/16 09:07:37;;;;;;;0.93;0.70;;;14.90;97.50;;;;;;4991939;28;20820;-71
2023/05/16 09:10:06;;;;;;;0.30;0.30;;;15.00;97.90;;;;;;4992840;28;20470;-72
2023/05/16 09:12:33;;;;;;;0.87;0.57;;;14.90;98.10;;;;;;4992400;28;20508;-73
2023/05/16 09:15:01;;;;;;;0.97;0.67;;;15.00;98.50;;;;;;4980005;28;20487;-74
2023/05/16 09:17:35;;;;;;;2.63;0.40;;;15.20;99.00;;;;;;4981493;28;20485;-72
2023/05/16 09:20:09;;;;;;;3.13;2.87;;;15.50;98.30;;;;;;4992901;28;20948;-73
2023/05/16 09:22:35;;;;;;;0.20;0.20;;;15.60;98.40;;;;;;4977435;28;20589;-72
2023/05/16 09:25:03;;;;;;;1.23;0.60;;;16.20;99.90;;;;;;4973856;28;20872;-71
2023/05/16 09:27:32;;;;;;;2.47;0.73;;;15.10;99.90;;;;;;4987573;28;20809;-72
2023/05/16 09:29:59;;;;;;;0.20;0.20;;;15.00;99.90;;;;;;4993112;28;20497;-72
2023/05/16 09:32:26;;;;;;;0.20;0.20;;;15.10;99.90;;;;;;4991081;28;20848;-72
2023/05/16 09:34:56;;;;;;;1.20;0.30;;;15.10;99.60;;;;;;4980431;28;20546;-71
2023/05/16 09:37:23;;;;;;;2.57;1.40;;;15.30;99.30;;;;;;4990792;28;20521;-71
2023/05/16 09:39:51;;;;;;;4.03;1.33;;;15.60;98.40;;;;;;4989599;28;20475;-71
2023/05/16 09:42:19;;;;;;;2.77;0.27;;;15.70;97.10;;;;;;4989647;28;20483;-70
2023/05/16 09:44:50;;;;;;;0.30;0.30;;;15.70;97.00;;;;;;4992339;28;20455;-71
2023/05/16 09:47:17;;;;;;;0.60;0.60;;;15.60;96.80;;;;;;4985245;28;20468;-72
2023/05/16 09:49:45;;;;;;;0.83;0.83;;;15.60;96.80;;;;;;4989154;28;20471;-72
2023/05/16 09:52:12;;;;;;;0.70;0.60;;;15.60;97.20;;;;;;4977793;28;20590;-72
2023/05/16 09:54:40;;;;;;;1.70;0.30;;;15.60;97.30;;;;;;4984225;28;21145;-72
2023/05/16 09:57:06;;;;;;;0.30;0.30;;;15.70;97.60;;;;;;4983464;28;20468;-72
2023/05/16 09:59:36;;;;;;;1.90;0.77;;;15.70;97.20;;;;;;4988561;28;20463;-72
2023/05/16 10:02:06;;;;;;;0.60;0.60;;;15.60;96.80;;;;;;4987303;28;20572;-72
2023/05/16 10:04:34;;;;;;;0.77;0.40;;;15.40;97.30;;;;;;4989427;28;20468;-72
2023/05/16 10:07:03;;;;;;;0.37;0.37;;;15.40;97.70;;;;;;4991776;28;20479;-72
2023/05/16 10:09:32;;;;;;;1.90;0.60;;;15.20;97.30;;;;;;4987779;28;20498;-72
2023/05/16 10:12:03;;;;;;;0.40;0.40;;;15.20;97.10;;;;;;4992934;28;20514;-72
2023/05/16 10:14:33;;;;;;;0.33;0.33;;;15.30;97.30;;;;;;5003621;23;20467;-71
2023/05/16 10:17:01;;;;;;;0.20;0.20;;;15.40;97.70;;;;;;4969639;28;20523;-72
2023/05/16 10:19:32;;;;;;;2.17;0.73;;;15.50;98.10;;;;;;4955882;28;20460;-73
2023/05/16 10:22:03;;;;;;;1.90;0.47;;;15.20;99.80;;;;;;4963786;28;20883;-72
2023/05/16 10:24:39;;;;;;;0.37;0.37;;;14.80;99.90;;;;;;4959452;28;20468;-74
2023/05/16 10:27:06;;;;;;;0.50;0.50;;;14.40;99.90;;;;;;4965414;28;20460;-74
2023/05/16 10:29:33;;;;;;;0.30;0.30;;;14.10;99.90;;;;;;4966807;28;20499;-74
2023/05/16 10:31:59;;;;;;;0.50;0.50;;;14.10;99.90;;;;;;4966764;28;20476;-73
2023/05/16 10:34:26;;;;;;;1.50;0.47;;;14.10;99.90;;;;;;4965007;28;20539;-74
2023/05/16 10:36:55;;;;;;;2.03;0.50;;;14.30;99.90;;;;;;4964697;28;20499;-73
2023/05/16 10:39:22;;;;;;;3.80;0.90;;;14.40;99.90;;;;;;4963752;28;20469;-73
2023/05/16 10:41:50;;;;;;;1.07;0.43;;;14.40;99.90;;;;;;4968064;28;20475;-73
2023/05/16 10:44:17;;;;;;;0.70;0.70;;;14.40;99.90;;;;;;4958386;28;20567;-73
2023/05/16 10:46:44;;;;;;;0.40;0.40;;;14.40;99.90;;;;;;4963753;28;20476;-73
2023/05/16 10:49:21;;;;;;;1.90;0.40;;;14.40;99.90;;;;;;4965580;28;20463;-73
2023/05/16 10:52:05;;;;;;;0.30;0.30;;;14.60;99.90;;;;;;4966945;28;20479;-73
2023/05/16 10:54:36;;;;;;;1.33;0.70;;;14.90;99.50;;;;;;4966751;28;20463;-73
2023/05/16 10:57:09;;;;;;;0.50;0.50;;;15.10;98.80;;;;;;4970518;28;20464;-73
2023/05/16 10:59:44;;;;;;;0.27;0.27;;;15.40;98.70;;;;;;4968687;28;20995;-73
2023/05/16 11:02:25;;;;;;;0.93;0.40;;;15.60;96.60;;;;;;4967301;28;20467;-73
2023/05/16 11:04:53;;;;;;;1.23;0.50;;;15.70;96.30;;;;;;4955225;28;20515;-72
2023/05/16 11:07:23;;;;;;;3.03;1.27;;;15.80;96.10;;;;;;4962657;28;20979;-73
2023/05/16 11:10:05;;;;;;;14.53;0.50;;;15.50;97.90;;;;;;4963283;28;20563;-72
2023/05/16 11:12:43;;;;;;;0.30;0.30;;;15.20;98.90;;;;;;4963887;28;20492;-72
2023/05/16 11:15:21;;;;;;;0.73;0.40;;;14.80;99.90;;;;;;4961252;28;20578;-72
2023/05/16 11:17:47;;;;;;;0.83;0.40;;;14.60;99.90;;;;;;4970830;28;20468;-72
2023/05/16 11:20:30;;;;;;;0.67;0.20;;;14.20;99.90;;;;;;4959180;28;20468;-72
2023/05/16 11:23:26;;;;;;;0.40;0.40;;;14.10;99.90;;;;;;4965473;28;20487;-72
2023/05/16 11:25:56;;;;;;;0.40;0.40;;;14.30;99.90;;;;;;4929291;28;20495;-66
2023/05/16 11:28:24;;;;;;;4.57;0.60;;;14.60;99.90;;;;;;4966944;28;20476;-68
2023/05/16 11:30:54;;;;;;;3.30;0.50;;;14.90;99.90;;;;;;4966686;28;20463;-68
2023/05/16 11:33:22;;;;;;;0.60;0.60;;;15.10;99.90;;;;;;4968274;28;20473;-68
2023/05/16 11:36:03;;;;;;;0.40;0.40;;;15.00;99.60;;;;;;4962913;28;20838;-68
2023/05/16 11:38:32;;;;;;;0.40;0.40;;;14.80;99.50;;;;;;4968724;28;20467;-71
2023/05/16 11:41:03;;;;;;;15.57;1.43;;;14.70;99.10;;;;;;4971675;28;20976;-72
2023/05/16 11:43:36;;;;;;;0.20;0.20;;;14.90;99.10;;;;;;4970161;28;20492;-72
2023/05/16 11:46:03;;;;;;;0.77;0.47;;;14.90;97.60;;;;;;4966496;28;20813;-72
2023/05/16 11:48:30;;;;;;;0.50;0.50;;;14.70;97.90;;;;;;4971841;28;21042;-72
2023/05/16 11:50:56;;;;;;;1.33;0.20;;;14.60;98.80;;;;;;4966768;28;20848;-72
2023/05/16 11:53:23;;;;;;;2.93;1.00;;;14.50;98.90;;;;;;4971499;28;20834;-72
2023/05/16 11:55:51;;;;;;;0.30;0.20;;;14.70;98.80;;;;;;4971665;28;20499;-72
2023/05/16 11:58:19;;;;;;;2.93;0.63;;;14.60;99.90;;;;;;4971620;28;20502;-72
2023/05/16 12:00:50;;;;;;;3.60;1.00;;;14.30;99.90;;;;;;4972029;28;20513;-72
2023/05/16 12:03:19;;;;;;;0.90;0.90;;;14.00;99.90;;;;;;4971038;28;20467;-71
2023/05/16 12:05:56;;;;;;;0.53;0.53;;;13.80;99.90;;;;;;4966706;28;20508;-70
2023/05/16 12:08:24;;;;;;;2.10;0.73;;;13.70;99.90;;;;;;4969042;28;20451;-72
2023/05/16 12:10:53;;;;;;;0.20;0.20;;;13.70;99.90;;;;;;4971865;28;20460;-72
2023/05/16 12:13:21;;;;;;;9.97;1.50;;;13.70;99.90;;;;;;4971498;28;20464;-72
2023/05/16 12:15:48;;;;;;;0.57;0.37;;;14.00;99.90;;;;;;4971744;28;20502;-72
2023/05/16 12:18:16;;;;;;;11.43;0.97;;;14.10;99.90;;;;;;4971442;28;20467;-72
2023/05/16 12:20:43;;;;;;;1.20;1.20;;;14.30;99.90;;;;;;4970734;28;20468;-72
2023/05/16 12:23:14;;;;;;;1.60;0.40;;;14.30;99.90;;;;;;4967464;28;20467;-72
2023/05/16 12:25:45;;;;;;;2.03;0.20;;;14.50;99.90;;;;;;4971180;28;20996;-72
2023/05/16 12:28:14;;;;;;;0.97;0.60;;;14.60;99.30;;;;;;4971995;28;20847;-72
2023/05/16 12:30:42;;;;;;;0.30;0.30;;;14.70;98.80;;;;;;4971565;28;20464;-72
2023/05/16 12:33:11;;;;;;;0.50;0.50;;;14.70;98.30;;;;;;4971596;28;20550;-71
2023/05/16 12:35:39;;;;;;;0.20;0.20;;;14.60;98.00;;;;;;4970648;28;20528;-71
2023/05/16 12:38:06;;;;;;;2.37;0.37;;;14.50;98.70;;;;;;4973976;28;20471;-71
2023/05/16 12:40:35;;;;;;;1.93;0.50;;;14.40;99.90;;;;;;4960916;28;20566;-72
2023/05/16 12:43:02;;;;;;;1.03;0.50;;;14.30;99.90;;;;;;4975029;28;20557;-71
2023/05/16 12:45:30;;;;;;;4.13;0.73;;;14.30;99.90;;;;;;4974351;28;20491;-72
2023/05/16 12:47:57;;;;;;;0.40;0.40;;;14.50;99.90;;;;;;4968275;28;20471;-72
2023/05/16 12:50:26;;;;;;;1.40;0.30;;;14.60;99.90;;;;;;4974124;28;20579;-74
2023/05/16 12:52:54;;;;;;;1.90;0.80;;;14.60;99.90;;;;;;4975447;28;20518;-74
2023/05/16 12:55:22;;;;;;;1.70;0.63;;;14.40;99.90;;;;;;4973947;28;20487;-74
2023/05/16 12:57:50;;;;;;;0.40;0.40;;;14.30;99.90;;;;;;4968397;28;20500;-74
2023/05/16 13:00:19;;;;;;;0.30;0.30;;;14.30;99.90;;;;;;4964241;28;20496;-73
2023/05/16 13:02:48;;;;;;;0.40;0.40;;;14.30;99.90;;;;;;4966486;28;20467;-72
2023/05/16 13:05:16;;;;;;;0.20;0.20;;;14.20;99.90;;;;;;4973023;28;20494;-72
2023/05/16 13:07:43;;;;;;;0.20;0.20;;;14.10;99.90;;;;;;4974530;28;20484;-72
2023/05/16 13:10:11;;;;;;;0.33;0.33;;;14.10;99.90;;;;;;4974197;28;20468;-71
2023/05/16 13:12:38;;;;;;;0.30;0.30;;;14.00;99.90;;;;;;4974278;28;20474;-71
2023/05/16 13:15:06;;;;;;;0.83;0.83;;;13.90;99.50;;;;;;4968393;28;20903;-71
2023/05/16 13:17:33;;;;;;;3.80;1.00;;;13.80;99.70;;;;;;4974109;28;20567;-71
2023/05/16 13:20:02;;;;;;;0.30;0.30;;;13.80;99.90;;;;;;4973211;28;20471;-70
2023/05/16 13:22:29;;;;;;;0.20;0.20;;;14.00;98.40;;;;;;4972950;28;20506;-70
2023/05/16 13:24:55;;;;;;;0.23;0.20;;;14.20;97.40;;;;;;4973292;28;20483;-70
2023/05/16 13:27:23;;;;;;;0.30;0.30;;;14.50;97.00;;;;;;4973993;28;20550;-70
2023/05/16 13:29:49;;;;;;;0.20;0.20;;;14.60;97.10;;;;;;4973565;28;20562;-69
2023/05/16 13:32:16;;;;;;;0.40;0.40;;;14.50;97.20;;;;;;4971817;28;20554;-71
2023/05/16 13:34:43;;;;;;;0.40;0.37;;;14.40;98.00;;;;;;4972508;28;20491;-71
2023/05/16 13:37:11;;;;;;;0.57;0.40;;;14.30;98.40;;;;;;4973866;28;20491;-70
2023/05/16 13:39:38;;;;;;;0.20;0.20;;;14.20;98.80;;;;;;4971799;28;20490;-71
2023/05/16 13:42:05;;;;;;;2.53;0.43;;;14.30;98.40;;;;;;4968200;28;20518;-70
2023/05/16 13:44:32;;;;;;;0.40;0.40;;;14.20;97.00;;;;;;4972728;28;20464;-71
2023/05/16 13:46:58;;;;;;;4.90;0.47;;;14.30;96.40;;;;;;4973754;28;20832;-71
2023/05/16 13:49:25;;;;;;;0.20;0.20;;;14.40;96.60;;;;;;4967354;28;20480;-71
2023/05/16 13:51:52;;;;;;;0.77;0.70;;;14.50;96.50;;;;;;4973909;28;20551;-70
2023/05/16 13:54:21;;;;;;;0.20;0.20;;;14.70;97.20;;;;;;4973354;28;20841;-72
2023/05/16 13:56:48;;;;;;;0.50;0.47;;;14.90;97.50;;;;;;4973760;28;20578;-70
2023/05/16 13:59:15;;;;;;;6.13;0.40;;;14.80;97.40;;;;;;4973923;28;20808;-70
2023/05/16 14:01:42;;;;;;;0.43;0.30;;;14.70;98.20;;;;;;4974167;28;20571;-71
2023/05/16 14:04:09;;;;;;;0.30;0.30;;;14.70;98.40;;;;;;4972782;28;20510;-70
2023/05/16 14:06:36;;;;;;;2.10;2.00;;;14.80;98.60;;;;;;4970341;28;20490;-71
2023/05/16 14:09:03;;;;;;;2.97;0.80;;;14.80;98.60;;;;;;4973422;28;20464;-71
2023/05/16 14:11:31;;;;;;;0.63;0.63;;;14.70;99.20;;;;;;4973491;28;20468;-71
2023/05/16 14:13:58;;;;;;;0.20;0.20;;;14.60;99.60;;;;;;4973352;28;20829;-71
2023/05/16 14:16:25;;;;;;;2.07;1.90;;;14.30;99.60;;;;;;4973664;28;20492;-71
2023/05/16 14:18:51;;;;;;;2.30;0.50;;;14.20;99.90;;;;;;4972716;28;20475;-71
2023/05/16 14:21:18;;;;;;;4.17;0.73;;;14.10;99.90;;;;;;4970234;28;20555;-71
2023/05/16 14:23:45;;;;;;;0.97;0.40;;;14.20;99.70;;;;;;4964252;28;20476;-71
2023/05/16 14:26:12;;;;;;;0.30;0.30;;;14.30;98.90;;;;;;4973505;28;20487;-73
2023/05/16 14:28:40;;;;;;;0.33;0.33;;;14.60;98.70;;;;;;4973345;28;20468;-72
2023/05/16 14:31:06;;;;;;;0.20;0.20;;;14.80;98.30;;;;;;4973548;28;20995;-72
2023/05/16 14:33:33;;;;;;;5.17;0.40;;;15.00;99.00;;;;;;4972558;28;20474;-71
2023/05/16 14:36:00;;;;;;;0.30;0.30;;;14.90;99.90;;;;;;4972909;28;20513;-72
2023/05/16 14:38:26;;;;;;;0.20;0.20;;;14.70;99.90;;;;;;4973376;28;20464;-72
2023/05/16 14:40:53;;;;;;;0.83;0.40;;;14.30;99.90;;;;;;4966454;28;20495;-73
2023/05/16 14:43:20;;;;;;;0.20;0.20;;;14.00;99.90;;;;;;4968467;28;20474;-72
2023/05/16 14:45:48;;;;;;;2.43;0.30;;;13.90;99.90;;;;;;4971347;28;20484;-72
2023/05/16 14:48:15;;;;;;;0.87;0.50;;;13.80;99.90;;;;;;4960112;28;20808;-73
2023/05/16 14:50:42;;;;;;;0.30;0.30;;;13.60;99.90;;;;;;4970861;28;21039;-72
2023/05/16 14:53:09;;;;;;;7.23;0.80;;;13.70;99.90;;;;;;4965732;28;20553;-72
2023/05/16 14:55:36;;;;;;;1.70;0.20;;;13.80;99.90;;;;;;4970773;28;20593;-72
2023/05/16 14:58:03;;;;;;;0.80;0.80;;;13.60;99.90;;;;;;4967614;28;20488;-72
2023/05/16 15:00:30;;;;;;;0.27;0.27;;;13.50;99.90;;;;;;4971784;28;20472;-72
2023/05/16 15:02:59;;;;;;;0.30;0.30;;;13.40;99.90;;;;;;4957785;28;20472;-72
2023/05/16 15:05:27;;;;;;;0.30;0.30;;;13.50;99.90;;;;;;4966985;28;20578;-72
2023/05/16 15:07:54;;;;;;;0.40;0.40;;;13.60;99.90;;;;;;4965538;28;20465;-73
2023/05/16 15:10:21;;;;;;;1.70;0.30;;;13.50;98.90;;;;;;4966081;28;20564;-72
2023/05/16 15:12:47;;;;;;;0.87;0.30;;;13.70;99.20;;;;;;4968532;28;20468;-72
2023/05/16 15:15:14;;;;;;;0.20;0.20;;;13.90;99.30;;;;;;4964933;28;20563;-72
2023/05/16 15:17:41;;;;;;;3.10;0.30;;;14.00;99.00;;;;;;4971157;28;20467;-73
2023/05/16 15:20:11;;;;;;;0.40;0.40;;;14.10;98.70;;;;;;4964052;28;20972;-73
2023/05/16 15:22:39;;;;;;;0.50;0.50;;;14.30;99.10;;;;;;4966061;28;20473;-72
2023/05/16 15:25:09;;;;;;;0.30;0.30;;;14.50;98.40;;;;;;4964457;28;20496;-72
2023/05/16 15:27:36;;;;;;;0.30;0.30;;;14.40;97.80;;;;;;4970159;28;20482;-72
2023/05/16 15:30:03;;;;;;;0.20;0.20;;;14.30;97.60;;;;;;4966772;28;20472;-72
2023/05/16 15:32:29;;;;;;;0.20;0.20;;;14.20;97.60;;;;;;4962087;28;20949;-72
2023/05/16 15:34:56;;;;;;;0.30;0.20;;;14.40;97.90;;;;;;4965449;28;20492;-72
2023/05/16 15:37:25;;;;;;;0.23;0.23;;;14.50;97.80;;;;;;4967603;28;20491;-73
2023/05/16 15:39:51;;;;;;;0.33;0.33;;;14.50;98.30;;;;;;4970073;28;20500;-73
2023/05/16 15:42:20;;;;;;;0.30;0.20;;;14.60;98.40;;;;;;4971846;28;20464;-73
2023/05/16 15:44:46;;;;;;;0.70;0.47;;;14.50;98.40;;;;;;4952212;28;20484;-72
2023/05/16 15:47:13;;;;;;;1.53;0.57;;;14.20;99.00;;;;;;4966119;28;20460;-72
2023/05/16 15:49:40;;;;;;;0.30;0.30;;;14.10;99.90;;;;;;4964290;28;20480;-72
2023/05/16 15:52:07;;;;;;;0.23;0.23;;;14.10;99.90;;;;;;4972607;28;20490;-72
2023/05/16 15:54:35;;;;;;;0.60;0.30;;;14.10;99.90;;;;;;4970075;28;20467;-72
2023/05/16 15:57:02;;;;;;;0.57;0.57;;;14.30;99.90;;;;;;4969563;28;20491;-72
2023/05/16 15:59:29;;;;;;;0.77;0.57;;;14.20;99.90;;;;;;4963075;28;20476;-72
2023/05/16 16:01:56;;;;;;;3.00;0.70;;;14.10;99.80;;;;;;4968648;28;20552;-71
2023/05/16 16:04:22;;;;;;;1.47;1.47;;;14.10;99.90;;;;;;4958681;28;20468;-72
2023/05/16 16:06:49;;;;;;;1.30;0.50;;;14.10;99.90;;;;;;4971522;28;20463;-72
2023/05/16 16:09:17;;;;;;;0.20;0.20;;;14.20;99.60;;;;;;4966495;28;20477;-72
2023/05/16 16:11:45;;;;;;;0.60;0.60;;;14.10;98.50;;;;;;4965537;28;20542;-72
2023/05/16 16:14:12;;;;;;;0.60;0.60;;;14.10;98.80;;;;;;4973747;28;20463;-72
2023/05/16 16:16:39;;;;;;;0.80;0.80;;;14.00;99.30;;;;;;4992099;23;20906;-74
2023/05/16 16:19:06;;;;;;;1.20;0.30;;;14.00;99.10;;;;;;4979077;28;20467;-76
2023/05/16 16:21:33;;;;;;;0.20;0.20;;;13.90;99.30;;;;;;4974610;28;20482;-75
2023/05/16 16:24:00;;;;;;;0.20;0.20;;;14.00;99.10;;;;;;4969307;28;20538;-76
2023/05/16 16:26:27;;;;;;;0.20;0.20;;;14.00;99.30;;;;;;4969743;28;20526;-75
2023/05/16 16:28:55;;;;;;;1.47;0.33;;;13.90;99.30;;;;;;4967388;28;20466;-74
2023/05/16 16:31:21;;;;;;;0.70;0.70;;;13.80;99.20;;;;;;4986335;28;20459;-74
2023/05/16 16:33:48;;;;;;;0.50;0.50;;;13.60;99.60;;;;;;4974111;28;20464;-74
2023/05/16 16:36:16;;;;;;;0.20;0.20;;;13.50;99.90;;;;;;4986159;28;20491;-73
2023/05/16 16:38:43;;;;;;;1.60;0.50;;;13.50;99.90;;;;;;4982140;28;20536;-73
2023/05/16 16:41:10;;;;;;;0.50;0.50;;;13.40;99.90;;;;;;4983397;28;20487;-74
2023/05/16 16:43:39;;;;;;;0.40;0.40;;;13.40;99.90;;;;;;4982440;28;20506;-74
2023/05/16 16:46:07;;;;;;;0.87;0.20;;;13.40;99.90;;;;;;4971456;28;20481;-74
2023/05/16 16:48:34;;;;;;;2.10;1.30;;;13.40;99.90;;;;;;4969202;28;20468;-74